createdAt,value
2019-04-28T00:00:27.506Z,1010.35
2019-04-28T00:01:27.016Z,1010.43
2019-04-28T00:02:26.999Z,1010.41
2019-04-28T00:03:26.984Z,1010.41
2019-04-28T00:04:26.963Z,1010.38
2019-04-28T00:05:27.480Z,1010.41
2019-04-28T00:06:26.991Z,1010.42
2019-04-28T00:07:26.950Z,1010.36
2019-04-28T00:08:26.920Z,1010.41
2019-04-28T00:09:26.909Z,1010.36
2019-04-28T00:10:26.901Z,1010.36
2019-04-28T00:11:26.901Z,1010.37
2019-04-28T00:12:27.490Z,1010.41
2019-04-28T00:13:26.888Z,1010.37
2019-04-28T00:14:26.862Z,1010.38
2019-04-28T00:15:26.858Z,1010.38
2019-04-28T00:16:26.859Z,1010.41
2019-04-28T00:17:27.494Z,1010.35
2019-04-28T00:18:26.814Z,1010.40
2019-04-28T00:19:26.804Z,1010.37
2019-04-28T00:20:26.790Z,1010.41
2019-04-28T00:21:26.789Z,1010.44
2019-04-28T00:22:26.792Z,1010.34
2019-04-28T00:23:26.774Z,1010.43
2019-04-28T00:24:26.755Z,1010.41
2019-04-28T00:25:26.764Z,1010.45
2019-04-28T00:26:26.996Z,1010.47
2019-04-28T00:27:27.503Z,1010.43
2019-04-28T00:28:26.701Z,1010.46
2019-04-28T00:29:37.633Z,1010.43
2019-04-28T00:30:26.679Z,1010.47
2019-04-28T00:31:26.677Z,1010.35
2019-04-28T00:32:26.677Z,1010.43
2019-04-28T00:33:26.648Z,1010.48
2019-04-28T00:34:26.635Z,1010.42
2019-04-28T00:35:27.496Z,1010.44
2019-04-28T00:36:27.006Z,1010.46
2019-04-28T00:37:26.620Z,1010.48
2019-04-28T00:38:26.595Z,1010.44
2019-04-28T00:39:26.587Z,1010.38
2019-04-28T00:40:26.573Z,1010.45
2019-04-28T00:41:26.581Z,1010.48
2019-04-28T00:42:26.569Z,1010.43
2019-04-28T00:43:26.550Z,1010.43
2019-04-28T00:44:26.532Z,1010.44
2019-04-28T00:45:26.523Z,1010.43
2019-04-28T00:46:26.507Z,1010.38
2019-04-28T00:47:26.522Z,1010.43
2019-04-28T00:48:26.490Z,1010.44
2019-04-28T00:49:26.478Z,1010.44
2019-04-28T00:50:26.490Z,1010.44
2019-04-28T00:51:26.458Z,1010.42
2019-04-28T00:52:26.497Z,1010.41
2019-04-28T00:53:26.436Z,1010.42
2019-04-28T00:54:26.423Z,1010.43
2019-04-28T00:55:26.412Z,1010.48
2019-04-28T00:56:26.403Z,1010.41
2019-04-28T00:57:26.413Z,1010.39
2019-04-28T00:58:26.396Z,1010.40
2019-04-28T00:59:26.984Z,1010.40
2019-04-28T01:00:26.359Z,1010.46
2019-04-28T01:01:26.361Z,1010.38
2019-04-28T01:02:26.347Z,1010.51
2019-04-28T01:03:26.998Z,1010.45
2019-04-28T01:04:26.311Z,1010.48
2019-04-28T01:05:26.993Z,1010.37
2019-04-28T01:06:26.290Z,1010.47
2019-04-28T01:07:26.298Z,1010.46
2019-04-28T01:08:26.302Z,1010.37
2019-04-28T01:09:26.260Z,1010.40
2019-04-28T01:10:26.250Z,1010.42
2019-04-28T01:11:26.240Z,1010.42
2019-04-28T01:12:26.499Z,1010.48
2019-04-28T01:13:26.233Z,1010.43
2019-04-28T01:14:26.221Z,1010.46
2019-04-28T01:15:26.200Z,1010.43
2019-04-28T01:16:26.189Z,1010.43
2019-04-28T01:17:26.187Z,1010.42
2019-04-28T01:18:26.178Z,1010.45
2019-04-28T01:19:26.159Z,1010.45
2019-04-28T01:20:26.143Z,1010.44
2019-04-28T01:21:26.985Z,1010.47
2019-04-28T01:22:26.139Z,1010.42
2019-04-28T01:23:26.126Z,1010.39
2019-04-28T01:24:26.986Z,1010.43
2019-04-28T01:25:26.086Z,1010.39
2019-04-28T01:26:26.090Z,1010.34
2019-04-28T01:27:26.092Z,1010.39
2019-04-28T01:28:27.002Z,1010.43
2019-04-28T01:29:26.044Z,1010.37
2019-04-28T01:30:26.030Z,1010.35
2019-04-28T01:31:26.020Z,1010.39
2019-04-28T01:32:26.022Z,1010.40
2019-04-28T01:33:26.024Z,1010.35
2019-04-28T01:34:26.014Z,1010.40
2019-04-28T01:35:25.986Z,1010.26
2019-04-28T01:36:25.973Z,1010.39
2019-04-28T01:37:25.955Z,1010.43
2019-04-28T01:38:26.029Z,1010.40
2019-04-28T01:39:25.965Z,1010.38
2019-04-28T01:40:25.925Z,1010.35
2019-04-28T01:41:25.914Z,1010.37
2019-04-28T01:42:26.492Z,1010.40
2019-04-28T01:43:25.909Z,1010.36
2019-04-28T01:44:26.504Z,1010.40
2019-04-28T01:45:25.881Z,1010.41
2019-04-28T01:46:25.858Z,1010.40
2019-04-28T01:47:26.489Z,1010.41
2019-04-28T01:48:26.007Z,1010.44
2019-04-28T01:49:26.499Z,1010.44
2019-04-28T01:50:25.817Z,1010.47
2019-04-28T01:51:25.801Z,1010.49
2019-04-28T01:52:26.486Z,1010.47
2019-04-28T01:53:25.789Z,1010.45
2019-04-28T01:54:26.501Z,1010.46
2019-04-28T01:55:25.759Z,1010.44
2019-04-28T01:56:25.755Z,1010.48
2019-04-28T01:57:25.743Z,1010.39
2019-04-28T01:58:25.739Z,1010.48
2019-04-28T01:59:25.726Z,1010.49
2019-04-28T02:00:25.749Z,1010.53
2019-04-28T02:01:25.707Z,1010.48
2019-04-28T02:02:25.680Z,1010.54
2019-04-28T02:03:25.713Z,1010.51
2019-04-28T02:04:25.661Z,1010.49
2019-04-28T02:05:25.651Z,1010.50
2019-04-28T02:06:25.639Z,1010.53
2019-04-28T02:07:25.627Z,1010.54
2019-04-28T02:08:25.641Z,1010.52
2019-04-28T02:09:25.610Z,1010.52
2019-04-28T02:10:25.600Z,1010.54
2019-04-28T02:11:25.602Z,1010.57
2019-04-28T02:12:25.587Z,1010.59
2019-04-28T02:13:25.597Z,1010.49
2019-04-28T02:14:26.499Z,1010.53
2019-04-28T02:15:25.545Z,1010.53
2019-04-28T02:16:25.532Z,1010.54
2019-04-28T02:17:26.501Z,1010.50
2019-04-28T02:18:25.530Z,1010.54
2019-04-28T02:19:25.520Z,1010.60
2019-04-28T02:20:25.486Z,1010.56
2019-04-28T02:21:25.475Z,1010.46
2019-04-28T02:22:25.464Z,1010.52
2019-04-28T02:23:25.470Z,1010.60
2019-04-28T02:24:26.005Z,1010.60
2019-04-28T02:25:25.440Z,1010.47
2019-04-28T02:26:25.442Z,1010.54
2019-04-28T02:27:25.417Z,1010.58
2019-04-28T02:28:25.513Z,1010.63
2019-04-28T02:29:25.536Z,1010.59
2019-04-28T02:30:41.016Z,1010.60
2019-04-28T02:31:25.367Z,1010.60
2019-04-28T02:32:25.372Z,1010.62
2019-04-28T02:33:25.346Z,1010.52
2019-04-28T02:34:25.353Z,1010.63
2019-04-28T02:35:25.342Z,1010.55
2019-04-28T02:36:25.992Z,1010.64
2019-04-28T02:37:25.311Z,1010.69
2019-04-28T02:38:25.301Z,1010.63
2019-04-28T02:39:25.366Z,1010.67
2019-04-28T02:40:25.289Z,1010.68
2019-04-28T02:41:25.264Z,1010.57
2019-04-28T02:42:25.253Z,1010.63
2019-04-28T02:43:25.252Z,1010.68
2019-04-28T02:44:25.242Z,1010.64
2019-04-28T02:45:25.233Z,1010.65
2019-04-28T02:46:25.218Z,1010.65
2019-04-28T02:47:25.994Z,1010.69
2019-04-28T02:48:25.183Z,1010.69
2019-04-28T02:49:25.506Z,1010.72
2019-04-28T02:50:25.187Z,1010.64
2019-04-28T02:51:25.992Z,1010.69
2019-04-28T02:52:25.988Z,1010.67
2019-04-28T02:53:25.135Z,1010.71
2019-04-28T02:54:25.127Z,1010.76
2019-04-28T02:55:25.125Z,1010.78
2019-04-28T02:56:25.116Z,1010.71
2019-04-28T02:57:25.990Z,1010.73
2019-04-28T02:58:25.090Z,1010.76
2019-04-28T02:59:25.072Z,1010.82
2019-04-28T03:00:25.091Z,1010.75
2019-04-28T03:01:26.662Z,1010.82
2019-04-28T03:02:25.033Z,1010.79
2019-04-28T03:03:25.994Z,1010.79
2019-04-28T03:04:25.032Z,1010.83
2019-04-28T03:05:25.018Z,1010.79
2019-04-28T03:06:25.499Z,1010.73
2019-04-28T03:07:24.987Z,1010.78
2019-04-28T03:08:24.966Z,1010.80
2019-04-28T03:09:25.499Z,1010.85
2019-04-28T03:10:25.025Z,1010.80
2019-04-28T03:11:24.957Z,1010.81
2019-04-28T03:12:24.921Z,1010.79
2019-04-28T03:13:24.911Z,1010.78
2019-04-28T03:14:25.494Z,1010.73
2019-04-28T03:15:24.924Z,1010.68
2019-04-28T03:16:24.879Z,1010.76
2019-04-28T03:17:24.871Z,1010.81
2019-04-28T03:18:24.865Z,1010.83
2019-04-28T03:19:24.853Z,1010.83
2019-04-28T03:20:24.866Z,1010.84
2019-04-28T03:21:24.829Z,1010.83
2019-04-28T03:22:24.812Z,1010.82
2019-04-28T03:23:24.810Z,1010.86
2019-04-28T03:24:24.804Z,1010.87
2019-04-28T03:25:25.026Z,1010.85
2019-04-28T03:26:24.858Z,1010.85
2019-04-28T03:27:24.760Z,1010.86
2019-04-28T03:28:24.752Z,1010.83
2019-04-28T03:29:24.740Z,1010.90
2019-04-28T03:30:24.764Z,1010.85
2019-04-28T03:31:55.193Z,1010.87
2019-04-28T03:32:36.626Z,1010.90
2019-04-28T03:33:26.200Z,1010.86
2019-04-28T03:34:24.684Z,1010.88
2019-04-28T03:35:25.042Z,1010.87
2019-04-28T03:36:24.684Z,1010.89
2019-04-28T03:37:24.688Z,1010.89
2019-04-28T03:38:24.636Z,1010.95
2019-04-28T03:39:24.635Z,1010.88
2019-04-28T03:40:24.630Z,1010.92
2019-04-28T03:41:24.619Z,1010.88
2019-04-28T03:42:24.590Z,1010.91
2019-04-28T03:43:24.599Z,1010.81
2019-04-28T03:44:24.602Z,1010.88
2019-04-28T03:45:24.577Z,1010.84
2019-04-28T03:46:24.575Z,1010.87
2019-04-28T03:47:24.554Z,1010.78
2019-04-28T03:48:24.533Z,1010.85
2019-04-28T03:49:24.539Z,1010.84
2019-04-28T03:50:24.522Z,1010.87
2019-04-28T03:51:24.509Z,1010.86
2019-04-28T03:52:24.492Z,1010.84
2019-04-28T03:53:24.472Z,1010.89
2019-04-28T03:54:24.471Z,1010.88
2019-04-28T03:55:24.491Z,1010.93
2019-04-28T03:56:24.455Z,1010.90
2019-04-28T03:57:24.455Z,1010.94
2019-04-28T03:58:24.519Z,1010.94
2019-04-28T03:59:24.999Z,1010.93
2019-04-28T04:00:24.422Z,1010.90
2019-04-28T04:01:24.413Z,1010.95
2019-04-28T04:02:24.393Z,1011.01
2019-04-28T04:03:24.370Z,1011.04
2019-04-28T04:04:24.355Z,1011.01
2019-04-28T04:05:24.365Z,1011.03
2019-04-28T04:06:24.349Z,1011.05
2019-04-28T04:07:24.328Z,1011.05
2019-04-28T04:08:24.325Z,1011.05
2019-04-28T04:09:24.335Z,1011.06
2019-04-28T04:10:24.512Z,1011.05
2019-04-28T04:11:24.311Z,1011.00
2019-04-28T04:12:24.269Z,1011.06
2019-04-28T04:13:24.255Z,1011.07
2019-04-28T04:14:24.245Z,1011.05
2019-04-28T04:15:24.307Z,1011.03
2019-04-28T04:16:25.012Z,1011.05
2019-04-28T04:17:24.217Z,1011.04
2019-04-28T04:18:24.210Z,1011.05
2019-04-28T04:19:24.209Z,1011.02
2019-04-28T04:20:25.003Z,1011.05
2019-04-28T04:21:24.202Z,1011.07
2019-04-28T04:22:25.004Z,1011.06
2019-04-28T04:23:24.148Z,1011.06
2019-04-28T04:24:24.153Z,1011.06
2019-04-28T04:25:24.124Z,1011.11
2019-04-28T04:26:24.160Z,1011.07
2019-04-28T04:27:24.106Z,1011.04
2019-04-28T04:28:24.099Z,1011.11
2019-04-28T04:29:24.087Z,1011.08
2019-04-28T04:30:25.011Z,1011.09
2019-04-28T04:31:24.084Z,1011.15
2019-04-28T04:32:27.178Z,1011.18
2019-04-28T04:33:24.048Z,1011.15
2019-04-28T04:34:24.038Z,1011.17
2019-04-28T04:35:25.006Z,1011.14
2019-04-28T04:36:24.048Z,1011.16
2019-04-28T04:37:24.007Z,1011.18
2019-04-28T04:38:23.989Z,1011.22
2019-04-28T04:39:23.981Z,1011.24
2019-04-28T04:40:23.970Z,1011.21
2019-04-28T04:41:23.969Z,1011.18
2019-04-28T04:42:23.971Z,1011.23
2019-04-28T04:43:24.509Z,1011.26
2019-04-28T04:44:23.936Z,1011.24
2019-04-28T04:45:24.543Z,1011.27
2019-04-28T04:46:23.926Z,1011.29
2019-04-28T04:47:24.521Z,1011.33
2019-04-28T04:48:23.890Z,1011.27
2019-04-28T04:49:23.877Z,1011.31
2019-04-28T04:50:24.520Z,1011.37
2019-04-28T04:51:23.856Z,1011.39
2019-04-28T04:52:23.859Z,1011.34
2019-04-28T04:53:23.824Z,1011.36
2019-04-28T04:54:23.815Z,1011.37
2019-04-28T04:55:23.797Z,1011.36
2019-04-28T04:56:24.027Z,1011.32
2019-04-28T04:57:24.520Z,1011.37
2019-04-28T04:58:23.782Z,1011.37
2019-04-28T04:59:23.768Z,1011.35
2019-04-28T05:00:23.751Z,1011.43
2019-04-28T05:01:24.032Z,1011.42
2019-04-28T05:02:29.336Z,1011.44
2019-04-28T05:03:23.712Z,1011.37
2019-04-28T05:04:23.698Z,1011.47
2019-04-28T05:05:23.689Z,1011.49
2019-04-28T05:06:24.012Z,1011.46
2019-04-28T05:07:23.667Z,1011.50
2019-04-28T05:08:23.658Z,1011.55
2019-04-28T05:09:23.646Z,1011.55
2019-04-28T05:10:23.635Z,1011.46
2019-04-28T05:11:23.632Z,1011.56
2019-04-28T05:12:24.017Z,1011.54
2019-04-28T05:13:23.615Z,1011.57
2019-04-28T05:14:23.600Z,1011.56
2019-04-28T05:15:23.581Z,1011.62
2019-04-28T05:16:23.570Z,1011.58
2019-04-28T05:17:23.567Z,1011.56
2019-04-28T05:18:23.552Z,1011.58
2019-04-28T05:19:23.540Z,1011.61
2019-04-28T05:20:23.528Z,1011.58
2019-04-28T05:21:23.514Z,1011.62
2019-04-28T05:22:23.516Z,1011.55
2019-04-28T05:23:23.491Z,1011.66
2019-04-28T05:24:24.000Z,1011.65
2019-04-28T05:25:24.525Z,1011.69
2019-04-28T05:26:23.457Z,1011.74
2019-04-28T05:27:25.591Z,1011.74
2019-04-28T05:28:24.001Z,1011.76
2019-04-28T05:29:26.959Z,1011.71
2019-04-28T05:30:23.415Z,1011.73
2019-04-28T05:31:24.390Z,1011.68
2019-04-28T05:32:23.425Z,1011.70
2019-04-28T05:33:30.250Z,1011.78
2019-04-28T05:34:24.305Z,1011.76
2019-04-28T05:35:25.107Z,1011.76
2019-04-28T05:36:23.352Z,1011.79
2019-04-28T05:37:23.371Z,1011.79
2019-04-28T05:38:23.332Z,1011.82
2019-04-28T05:39:23.318Z,1011.79
2019-04-28T05:40:23.308Z,1011.82
2019-04-28T05:41:23.306Z,1011.78
2019-04-28T05:42:23.320Z,1011.82
2019-04-28T05:43:23.277Z,1011.85
2019-04-28T05:44:23.265Z,1011.87
2019-04-28T05:45:23.253Z,1011.85
2019-04-28T05:46:23.251Z,1011.86
2019-04-28T05:47:23.269Z,1011.88
2019-04-28T05:48:23.223Z,1011.84
2019-04-28T05:49:23.211Z,1011.85
2019-04-28T05:50:24.003Z,1011.85
2019-04-28T05:51:24.007Z,1011.85
2019-04-28T05:52:23.203Z,1011.88
2019-04-28T05:53:23.190Z,1011.81
2019-04-28T05:54:23.163Z,1011.86
2019-04-28T05:55:23.155Z,1011.89
2019-04-28T05:56:23.139Z,1011.86
2019-04-28T05:57:23.141Z,1011.83
2019-04-28T05:58:23.167Z,1011.89
2019-04-28T05:59:23.103Z,1011.88
2019-04-28T06:00:23.094Z,1011.86
2019-04-28T06:01:24.004Z,1011.88
2019-04-28T06:02:23.362Z,1011.87
2019-04-28T06:03:23.083Z,1011.89
2019-04-28T06:04:23.062Z,1011.91
2019-04-28T06:05:24.006Z,1011.90
2019-04-28T06:06:23.028Z,1011.87
2019-04-28T06:07:24.003Z,1011.91
2019-04-28T06:08:23.032Z,1011.89
2019-04-28T06:09:23.010Z,1011.84
2019-04-28T06:10:23.503Z,1011.89
2019-04-28T06:11:23.011Z,1011.90
2019-04-28T06:12:22.962Z,1011.88
2019-04-28T06:13:23.036Z,1011.89
2019-04-28T06:14:23.503Z,1011.83
2019-04-28T06:15:22.939Z,1011.90
2019-04-28T06:16:23.507Z,1011.91
2019-04-28T06:17:22.908Z,1011.91
2019-04-28T06:18:22.907Z,1011.93
2019-04-28T06:19:22.889Z,1011.98
2019-04-28T06:20:22.894Z,1011.93
2019-04-28T06:21:22.872Z,1011.92
2019-04-28T06:22:22.856Z,1011.97
2019-04-28T06:23:22.856Z,1011.96
2019-04-28T06:24:22.831Z,1011.96
2019-04-28T06:25:22.821Z,1012.01
2019-04-28T06:26:22.827Z,1011.98
2019-04-28T06:27:23.517Z,1011.99
2019-04-28T06:28:22.810Z,1012.03
2019-04-28T06:29:22.779Z,1012.01
2019-04-28T06:30:22.777Z,1012.02
2019-04-28T06:31:22.766Z,1011.97
2019-04-28T06:32:22.746Z,1011.99
2019-04-28T06:33:22.766Z,1011.99
2019-04-28T06:34:22.723Z,1011.97
2019-04-28T06:35:22.714Z,1012.02
2019-04-28T06:36:23.513Z,1012.04
2019-04-28T06:37:23.513Z,1012.03
2019-04-28T06:38:22.704Z,1012.04
2019-04-28T06:39:22.683Z,1012.03
2019-04-28T06:40:22.659Z,1012.03
2019-04-28T06:41:22.657Z,1012.02
2019-04-28T06:42:23.517Z,1012.05
2019-04-28T06:43:23.049Z,1012.07
2019-04-28T06:44:22.645Z,1012.04
2019-04-28T06:45:22.610Z,1012.10
2019-04-28T06:46:22.595Z,1012.08
2019-04-28T06:47:22.586Z,1012.09
2019-04-28T06:48:23.039Z,1012.07
2019-04-28T06:49:22.559Z,1012.12
2019-04-28T06:50:22.564Z,1012.06
2019-04-28T06:51:22.539Z,1012.07
2019-04-28T06:52:23.509Z,1012.15
2019-04-28T06:53:22.542Z,1012.17
2019-04-28T06:54:22.510Z,1012.12
2019-04-28T06:55:22.499Z,1012.17
2019-04-28T06:56:22.513Z,1012.17
2019-04-28T06:57:22.475Z,1012.19
2019-04-28T06:58:22.527Z,1012.15
2019-04-28T06:59:22.452Z,1012.17
2019-04-28T07:00:22.443Z,1012.20
2019-04-28T07:01:22.442Z,1012.19
2019-04-28T07:02:22.417Z,1012.24
2019-04-28T07:03:23.184Z,1012.14
2019-04-28T07:04:22.422Z,1012.25
2019-04-28T07:05:23.009Z,1012.23
2019-04-28T07:06:23.008Z,1012.15
2019-04-28T07:07:22.366Z,1012.22
2019-04-28T07:08:22.359Z,1012.16
2019-04-28T07:09:22.628Z,1012.20
2019-04-28T07:10:22.358Z,1012.22
2019-04-28T07:11:23.015Z,1012.23
2019-04-28T07:12:22.321Z,1012.26
2019-04-28T07:13:22.307Z,1012.25
2019-04-28T07:14:22.354Z,1012.20
2019-04-28T07:15:23.008Z,1012.27
2019-04-28T07:16:22.271Z,1012.26
2019-04-28T07:17:23.011Z,1012.30
2019-04-28T07:18:23.005Z,1012.25
2019-04-28T07:19:22.283Z,1012.26
2019-04-28T07:20:22.226Z,1012.26
2019-04-28T07:21:22.212Z,1012.24
2019-04-28T07:22:22.201Z,1012.24
2019-04-28T07:23:23.011Z,1012.27
2019-04-28T07:24:22.200Z,1012.24
2019-04-28T07:25:22.184Z,1012.23
2019-04-28T07:26:22.158Z,1012.24
2019-04-28T07:27:22.154Z,1012.31
2019-04-28T07:28:23.008Z,1012.28
2019-04-28T07:29:22.171Z,1012.34
2019-04-28T07:30:22.125Z,1012.31
2019-04-28T07:31:22.109Z,1012.27
2019-04-28T07:32:22.092Z,1012.33
2019-04-28T07:33:35.257Z,1012.29
2019-04-28T07:34:22.103Z,1012.31
2019-04-28T07:35:22.058Z,1012.35
2019-04-28T07:36:22.065Z,1012.29
2019-04-28T07:37:22.051Z,1012.25
2019-04-28T07:38:23.010Z,1012.27
2019-04-28T07:39:22.041Z,1012.31
2019-04-28T07:40:22.007Z,1012.31
2019-04-28T07:41:22.018Z,1012.26
2019-04-28T07:42:22.002Z,1012.32
2019-04-28T07:43:21.973Z,1012.22
2019-04-28T07:44:21.972Z,1012.28
2019-04-28T07:45:21.954Z,1012.31
2019-04-28T07:46:21.942Z,1012.32
2019-04-28T07:47:21.939Z,1012.31
2019-04-28T07:48:21.920Z,1012.35
2019-04-28T07:49:21.920Z,1012.37
2019-04-28T07:50:21.897Z,1012.38
2019-04-28T07:51:21.884Z,1012.31
2019-04-28T07:52:22.521Z,1012.45
2019-04-28T07:53:21.876Z,1012.46
2019-04-28T07:54:21.900Z,1012.46
2019-04-28T07:55:21.858Z,1012.47
2019-04-28T07:56:21.841Z,1012.47
2019-04-28T07:57:24.142Z,1012.46
2019-04-28T07:58:22.538Z,1012.50
2019-04-28T07:59:21.847Z,1012.45
2019-04-28T08:00:21.787Z,1012.49
2019-04-28T08:01:21.775Z,1012.49
2019-04-28T08:02:21.763Z,1012.47
2019-04-28T08:03:21.762Z,1012.50
2019-04-28T08:04:21.783Z,1012.49
2019-04-28T08:05:21.736Z,1012.52
2019-04-28T08:06:21.731Z,1012.52
2019-04-28T08:07:21.714Z,1012.51
2019-04-28T08:08:22.515Z,1012.55
2019-04-28T08:09:21.734Z,1012.56
2019-04-28T08:10:21.731Z,1012.55
2019-04-28T08:11:21.667Z,1012.50
2019-04-28T08:12:21.658Z,1012.55
2019-04-28T08:13:22.510Z,1012.53
2019-04-28T08:14:21.666Z,1012.45
2019-04-28T08:15:22.031Z,1012.52
2019-04-28T08:16:21.612Z,1012.56
2019-04-28T08:17:21.606Z,1012.56
2019-04-28T08:18:22.514Z,1012.53
2019-04-28T08:19:21.622Z,1012.52
2019-04-28T08:20:22.026Z,1012.58
2019-04-28T08:21:21.557Z,1012.57
2019-04-28T08:22:21.585Z,1012.54
2019-04-28T08:23:21.535Z,1012.53
2019-04-28T08:24:21.528Z,1012.59
2019-04-28T08:25:22.037Z,1012.56
2019-04-28T08:26:21.514Z,1012.58
2019-04-28T08:27:21.521Z,1012.57
2019-04-28T08:28:21.486Z,1012.61
2019-04-28T08:29:21.541Z,1012.62
2019-04-28T08:30:21.470Z,1012.60
2019-04-28T08:31:21.450Z,1012.64
2019-04-28T08:32:22.013Z,1012.62
2019-04-28T08:33:21.434Z,1012.64
2019-04-28T08:34:21.423Z,1012.66
2019-04-28T08:35:21.432Z,1012.66
2019-04-28T08:36:21.394Z,1012.63
2019-04-28T08:37:22.015Z,1012.67
2019-04-28T08:38:21.385Z,1012.57
2019-04-28T08:39:24.087Z,1012.59
2019-04-28T08:40:21.381Z,1012.60
2019-04-28T08:41:21.339Z,1012.65
2019-04-28T08:42:21.329Z,1012.62
2019-04-28T08:43:21.320Z,1012.71
2019-04-28T08:44:21.310Z,1012.65
2019-04-28T08:45:21.332Z,1012.63
2019-04-28T08:46:22.013Z,1012.63
2019-04-28T08:47:21.280Z,1012.64
2019-04-28T08:48:21.263Z,1012.68
2019-04-28T08:49:22.027Z,1012.68
2019-04-28T08:50:21.269Z,1012.72
2019-04-28T08:51:21.231Z,1012.69
2019-04-28T08:52:21.225Z,1012.75
2019-04-28T08:53:21.213Z,1012.64
2019-04-28T08:54:22.018Z,1012.66
2019-04-28T08:55:21.209Z,1012.67
2019-04-28T08:56:21.177Z,1012.71
2019-04-28T08:57:21.169Z,1012.65
2019-04-28T08:58:21.156Z,1012.66
2019-04-28T08:59:22.014Z,1012.70
2019-04-28T09:00:21.563Z,1012.78
2019-04-28T09:01:21.142Z,1012.74
2019-04-28T09:02:21.115Z,1012.74
2019-04-28T09:03:21.101Z,1012.76
2019-04-28T09:04:21.095Z,1012.76
2019-04-28T09:05:21.539Z,1012.79
2019-04-28T09:06:21.069Z,1012.71
2019-04-28T09:07:21.061Z,1012.74
2019-04-28T09:08:21.048Z,1012.80
2019-04-28T09:09:21.033Z,1012.81
2019-04-28T09:10:21.045Z,1012.77
2019-04-28T09:11:21.027Z,1012.83
2019-04-28T09:12:21.016Z,1012.78
2019-04-28T09:13:21.015Z,1012.81
2019-04-28T09:14:20.986Z,1012.80
2019-04-28T09:15:20.994Z,1012.84
2019-04-28T09:16:20.966Z,1012.85
2019-04-28T09:17:20.948Z,1012.88
2019-04-28T09:18:20.962Z,1012.79
2019-04-28T09:19:21.520Z,1012.91
2019-04-28T09:20:20.940Z,1012.85
2019-04-28T09:21:20.918Z,1012.82
2019-04-28T09:22:20.888Z,1012.86
2019-04-28T09:23:20.888Z,1012.83
2019-04-28T09:24:21.513Z,1012.84
2019-04-28T09:25:20.861Z,1012.86
2019-04-28T09:26:20.879Z,1012.83
2019-04-28T09:27:20.842Z,1012.84
2019-04-28T09:28:20.829Z,1012.83
2019-04-28T09:29:21.552Z,1012.85
2019-04-28T09:30:21.537Z,1012.86
2019-04-28T09:31:21.043Z,1012.85
2019-04-28T09:32:20.782Z,1012.83
2019-04-28T09:33:20.771Z,1012.84
2019-04-28T09:34:28.088Z,1012.83
2019-04-28T09:35:20.773Z,1012.83
2019-04-28T09:36:20.767Z,1012.92
2019-04-28T09:37:20.785Z,1012.87
2019-04-28T09:38:20.718Z,1012.90
2019-04-28T09:39:23.404Z,1012.91
2019-04-28T09:40:20.712Z,1012.96
2019-04-28T09:41:20.716Z,1012.93
2019-04-28T09:42:20.674Z,1012.93
2019-04-28T09:43:20.663Z,1012.90
2019-04-28T09:44:20.653Z,1012.92
2019-04-28T09:45:20.640Z,1012.93
2019-04-28T09:46:20.659Z,1012.92
2019-04-28T09:47:20.638Z,1012.96
2019-04-28T09:48:20.611Z,1012.93
2019-04-28T09:49:20.598Z,1012.92
2019-04-28T09:50:20.587Z,1012.92
2019-04-28T09:51:21.059Z,1012.93
2019-04-28T09:52:20.585Z,1012.97
2019-04-28T09:53:20.595Z,1012.91
2019-04-28T09:54:20.542Z,1012.94
2019-04-28T09:55:20.538Z,1012.96
2019-04-28T09:56:20.580Z,1012.95
2019-04-28T09:57:21.037Z,1012.94
2019-04-28T09:58:20.510Z,1012.94
2019-04-28T09:59:21.024Z,1012.87
2019-04-28T10:00:20.570Z,1012.87
2019-04-28T10:01:20.547Z,1012.92
2019-04-28T10:02:21.022Z,1012.98
2019-04-28T10:03:21.019Z,1012.98
2019-04-28T10:04:20.456Z,1013.00
2019-04-28T10:05:20.424Z,1013.02
2019-04-28T10:06:20.476Z,1013.02
2019-04-28T10:07:20.404Z,1013.01
2019-04-28T10:08:20.395Z,1013.01
2019-04-28T10:09:20.378Z,1013.04
2019-04-28T10:10:20.372Z,1013.09
2019-04-28T10:11:30.371Z,1013.10
2019-04-28T10:12:26.901Z,1013.09
2019-04-28T10:13:20.346Z,1013.07
2019-04-28T10:14:20.331Z,1013.10
2019-04-28T10:15:20.331Z,1013.11
2019-04-28T10:16:20.303Z,1013.11
2019-04-28T10:17:20.313Z,1013.13
2019-04-28T10:18:20.300Z,1013.15
2019-04-28T10:19:20.274Z,1013.12
2019-04-28T10:20:20.270Z,1013.16
2019-04-28T10:21:20.260Z,1013.20
2019-04-28T10:22:20.268Z,1013.17
2019-04-28T10:23:20.231Z,1013.15
2019-04-28T10:24:20.217Z,1013.16
2019-04-28T10:25:21.274Z,1013.18
2019-04-28T10:26:21.030Z,1013.16
2019-04-28T10:27:20.243Z,1013.14
2019-04-28T10:28:20.177Z,1013.15
2019-04-28T10:29:20.167Z,1013.18
2019-04-28T10:30:20.155Z,1013.11
2019-04-28T10:31:21.021Z,1013.07
2019-04-28T10:32:20.163Z,1013.18
2019-04-28T10:33:21.020Z,1013.16
2019-04-28T10:34:21.020Z,1013.08
2019-04-28T10:35:20.104Z,1013.18
2019-04-28T10:36:20.093Z,1013.15
2019-04-28T10:37:20.092Z,1013.19
2019-04-28T10:38:20.076Z,1013.17
2019-04-28T10:39:20.064Z,1013.20
2019-04-28T10:40:20.050Z,1013.13
2019-04-28T10:41:21.035Z,1013.21
2019-04-28T10:42:20.046Z,1013.16
2019-04-28T10:43:20.534Z,1013.16
2019-04-28T10:44:20.012Z,1013.15
2019-04-28T10:45:20.004Z,1013.17
2019-04-28T10:46:19.984Z,1013.14
2019-04-28T10:47:19.990Z,1013.13
2019-04-28T10:48:19.961Z,1013.13
2019-04-28T10:49:20.524Z,1013.09
2019-04-28T10:50:19.960Z,1013.14
2019-04-28T10:51:19.985Z,1013.05
2019-04-28T10:52:19.936Z,1013.10
2019-04-28T10:53:19.952Z,1013.10
2019-04-28T10:54:20.541Z,1013.14
2019-04-28T10:55:19.896Z,1013.18
2019-04-28T10:56:19.885Z,1013.14
2019-04-28T10:57:19.878Z,1013.08
2019-04-28T10:58:19.857Z,1013.05
2019-04-28T10:59:19.851Z,1013.08
2019-04-28T11:00:19.835Z,1013.14
2019-04-28T11:01:19.845Z,1013.15
2019-04-28T11:02:19.857Z,1013.21
2019-04-28T11:03:19.809Z,1013.23
2019-04-28T11:04:19.794Z,1013.23
2019-04-28T11:05:20.530Z,1013.22
2019-04-28T11:06:19.785Z,1013.24
2019-04-28T11:07:19.760Z,1013.23
2019-04-28T11:08:19.789Z,1013.22
2019-04-28T11:09:30.058Z,1013.15
2019-04-28T11:10:19.732Z,1013.26
2019-04-28T11:11:19.717Z,1013.26
2019-04-28T11:12:20.539Z,1013.24
2019-04-28T11:13:19.718Z,1013.24
2019-04-28T11:14:19.688Z,1013.21
2019-04-28T11:15:19.677Z,1013.22
2019-04-28T11:16:19.670Z,1013.24
2019-04-28T11:17:19.655Z,1013.31
2019-04-28T11:18:20.063Z,1013.33
2019-04-28T11:19:19.635Z,1013.32
2019-04-28T11:20:19.628Z,1013.34
2019-04-28T11:21:20.548Z,1013.26
2019-04-28T11:22:20.551Z,1013.30
2019-04-28T11:23:20.051Z,1013.38
2019-04-28T11:24:20.565Z,1013.22
2019-04-28T11:25:19.596Z,1013.34
2019-04-28T11:26:19.562Z,1013.26
2019-04-28T11:27:19.548Z,1013.32
2019-04-28T11:28:19.561Z,1013.28
2019-04-28T11:29:20.543Z,1013.31
2019-04-28T11:30:19.527Z,1013.26
2019-04-28T11:31:19.505Z,1013.32
2019-04-28T11:32:19.495Z,1013.32
2019-04-28T11:33:19.500Z,1013.34
2019-04-28T11:34:19.473Z,1013.27
2019-04-28T11:35:21.836Z,1013.30
2019-04-28T11:36:19.466Z,1013.24
2019-04-28T11:37:20.028Z,1013.20
2019-04-28T11:38:19.447Z,1013.27
2019-04-28T11:39:19.421Z,1013.24
2019-04-28T11:40:19.411Z,1013.18
2019-04-28T11:41:20.038Z,1013.11
2019-04-28T11:42:20.035Z,1013.23
2019-04-28T11:43:19.398Z,1013.20
2019-04-28T11:44:20.041Z,1013.15
2019-04-28T11:45:19.357Z,1013.17
2019-04-28T11:46:19.365Z,1013.20
2019-04-28T11:47:20.027Z,1013.18
2019-04-28T11:48:19.389Z,1013.14
2019-04-28T11:49:19.315Z,1013.19
2019-04-28T11:50:20.023Z,1013.23
2019-04-28T11:51:20.036Z,1013.20
2019-04-28T11:52:20.028Z,1013.26
2019-04-28T11:53:19.283Z,1013.25
2019-04-28T11:54:19.261Z,1013.28
2019-04-28T11:55:19.255Z,1013.25
2019-04-28T11:56:19.241Z,1013.32
2019-04-28T11:57:20.034Z,1013.24
2019-04-28T11:58:19.571Z,1013.28
2019-04-28T11:59:19.231Z,1013.29
2019-04-28T12:00:19.210Z,1013.27
2019-04-28T12:01:19.197Z,1013.24
2019-04-28T12:02:19.180Z,1013.22
2019-04-28T12:03:19.163Z,1013.28
2019-04-28T12:04:19.221Z,1013.24
2019-04-28T12:05:19.156Z,1013.18